Time;durP1;ratioP1;P1;durP2;ratioP2;P2;SDS_P1;SDS_P2;PMS_P1;PMS_P2;Temp;Humidity;BMP_temperature;BMP_pressure;BME280_temperature;BME280_humidity;BME280_pressure;Samples;Min_cycle;Max_cycle;Signal;HPM_P1;HPM_P2
2021/09/28 00:02:05;;;;;;;;;;;21.10;75.10;;;;;;5055355;28;1318;-67
2021/09/28 00:04:30;;;;;;;;;;;21.10;75.10;;;;;;5036697;28;1257;-67
2021/09/28 00:06:55;;;;;;;;;;;21.10;75.00;;;;;;5037842;28;949;-67
2021/09/28 00:09:21;;;;;;;;;;;21.10;75.10;;;;;;5055626;28;1619;-67
2021/09/28 00:11:50;;;;;;;;;;;21.10;75.00;;;;;;5055295;28;1446;-68
2021/09/28 00:14:16;;;;;;;;;;;21.10;75.10;;;;;;5055498;28;1358;-67
2021/09/28 00:16:42;;;;;;;;;;;21.10;75.10;;;;;;5055437;28;1965;-67
2021/09/28 00:19:07;;;;;;;;;;;21.10;75.00;;;;;;5055367;28;1356;-67
2021/09/28 00:21:32;;;;;;;;;;;21.10;75.00;;;;;;5054747;28;1267;-67
2021/09/28 00:23:58;;;;;;;;;;;21.10;75.10;;;;;;5055044;28;1366;-67
2021/09/28 00:26:23;;;;;;;;;;;21.10;75.10;;;;;;5054436;28;1250;-67
2021/09/28 00:28:49;;;;;;;;;;;21.10;75.10;;;;;;5055044;28;1394;-67
2021/09/28 00:31:14;;;;;;;;;;;21.10;75.10;;;;;;5054654;28;1632;-69
2021/09/28 00:33:40;;;;;;;;;;;21.10;75.00;;;;;;5055002;28;1677;-69
2021/09/28 00:36:05;;;;;;;;;;;21.10;75.00;;;;;;5054818;28;1965;-69
2021/09/28 00:38:30;;;;;;;;;;;21.10;75.00;;;;;;5054309;28;1660;-67
2021/09/28 00:40:56;;;;;;;;;;;21.10;75.00;;;;;;5035838;28;1634;-67
2021/09/28 00:43:21;;;;;;;;;;;21.10;75.00;;;;;;5037121;28;1680;-67
2021/09/28 00:45:47;;;;;;;;;;;21.10;75.00;;;;;;5054275;28;1684;-67
2021/09/28 00:48:13;;;;;;;;;;;21.10;75.00;;;;;;5054758;28;1699;-67
2021/09/28 00:50:39;;;;;;;;;;;21.10;75.00;;;;;;5054019;28;1483;-67
2021/09/28 00:53:04;;;;;;;;;;;21.10;75.10;;;;;;5036942;28;1373;-67
2021/09/28 00:55:30;;;;;;;;;;;21.10;75.00;;;;;;5036802;28;1898;-67
2021/09/28 00:57:56;;;;;;;;;;;21.10;75.00;;;;;;5036955;28;1393;-67
2021/09/28 01:00:21;;;;;;;;;;;21.10;75.10;;;;;;5053673;28;1643;-67
2021/09/28 01:02:47;;;;;;;;;;;21.10;75.00;;;;;;5053916;28;1464;-67
2021/09/28 01:05:12;;;;;;;;;;;21.10;75.00;;;;;;5053799;28;1660;-67
2021/09/28 01:07:38;;;;;;;;;;;21.10;75.00;;;;;;5054358;28;1006;-67
2021/09/28 01:10:03;;;;;;;;;;;21.10;75.00;;;;;;5053978;28;1267;-67
2021/09/28 01:12:29;;;;;;;;;;;21.10;75.00;;;;;;5054342;28;1451;-67
2021/09/28 01:14:54;;;;;;;;;;;21.10;75.00;;;;;;5053859;28;1948;-67
2021/09/28 01:17:19;;;;;;;;;;;21.10;75.00;;;;;;5054497;28;1374;-67
2021/09/28 01:19:45;;;;;;;;;;;21.10;75.10;;;;;;5035909;28;1401;-68
2021/09/28 01:22:10;;;;;;;;;;;21.10;75.00;;;;;;5035095;28;923;-67
2021/09/28 01:24:36;;;;;;;;;;;21.10;75.00;;;;;;5035796;28;1360;-67
2021/09/28 01:27:02;;;;;;;;;;;21.10;75.00;;;;;;5036174;28;1688;-67
2021/09/28 01:29:27;;;;;;;;;;;21.10;75.10;;;;;;5035893;28;1719;-67
2021/09/28 01:31:53;;;;;;;;;;;21.10;75.00;;;;;;5053759;28;1615;-67
2021/09/28 01:34:19;;;;;;;;;;;21.00;74.90;;;;;;5036082;28;1427;-67
2021/09/28 01:36:47;;;;;;;;;;;21.10;75.00;;;;;;5036377;28;1910;-67
2021/09/28 01:39:13;;;;;;;;;;;21.10;75.00;;;;;;5053892;28;1654;-67
2021/09/28 01:41:39;;;;;;;;;;;21.10;75.00;;;;;;5035785;28;1705;-67
2021/09/28 01:44:08;;;;;;;;;;;21.10;74.90;;;;;;5035309;28;1730;-67
2021/09/28 01:46:34;;;;;;;;;;;21.10;74.90;;;;;;5035118;28;1436;-68
2021/09/28 01:49:00;;;;;;;;;;;21.10;74.80;;;;;;5053214;28;1675;-68
2021/09/28 01:51:25;;;;;;;;;;;21.10;74.70;;;;;;5034754;28;1383;-66
2021/09/28 01:53:51;;;;;;;;;;;21.10;74.60;;;;;;5035674;28;1462;-68
2021/09/28 01:56:17;;;;;;;;;;;21.20;74.60;;;;;;5035694;28;1906;-67
2021/09/28 01:58:43;;;;;;;;;;;21.20;74.50;;;;;;5035851;28;1609;-67
2021/09/28 02:01:08;;;;;;;;;;;21.20;75.10;;;;;;5053094;28;1679;-68
2021/09/28 02:03:34;;;;;;;;;;;21.20;74.30;;;;;;5034664;28;1457;-68
2021/09/28 02:05:59;;;;;;;;;;;21.20;74.20;;;;;;5052937;28;898;-68
2021/09/28 02:08:24;;;;;;;;;;;21.20;74.20;;;;;;5053155;28;1566;-68
2021/09/28 02:10:50;;;;;;;;;;;21.30;74.10;;;;;;5052968;28;1397;-68
2021/09/28 02:13:16;;;;;;;;;;;21.30;74.10;;;;;;5053122;28;1335;-68
2021/09/28 02:15:41;;;;;;;;;;;21.30;74.00;;;;;;5053035;28;1914;-69
2021/09/28 02:18:06;;;;;;;;;;;21.30;74.00;;;;;;5034931;28;1396;-68
2021/09/28 02:20:32;;;;;;;;;;;21.30;73.90;;;;;;5033532;28;1389;-66
2021/09/28 02:22:57;;;;;;;;;;;21.30;73.90;;;;;;5048860;28;1522;-67
2021/09/28 02:25:23;;;;;;;;;;;21.30;73.80;;;;;;5027091;28;1228;-68
2021/09/28 02:27:49;;;;;;;;;;;21.30;73.80;;;;;;5048963;28;1296;-68
2021/09/28 02:30:14;;;;;;;;;;;21.40;73.80;;;;;;5042648;28;1349;-68
2021/09/28 02:32:40;;;;;;;;;;;21.40;73.80;;;;;;5035264;28;1087;-68
2021/09/28 02:35:05;;;;;;;;;;;21.40;73.70;;;;;;5052764;28;1914;-67
2021/09/28 02:37:31;;;;;;;;;;;21.40;73.70;;;;;;5052780;28;1308;-68
2021/09/28 02:39:56;;;;;;;;;;;21.40;74.40;;;;;;5052483;28;1305;-68
2021/09/28 02:42:22;;;;;;;;;;;21.40;73.60;;;;;;5052722;28;1193;-68
2021/09/28 02:44:48;;;;;;;;;;;21.40;73.70;;;;;;5052736;28;1269;-68
2021/09/28 02:47:14;;;;;;;;;;;21.40;73.60;;;;;;5020937;28;1264;-68
2021/09/28 02:49:39;;;;;;;;;;;21.40;73.60;;;;;;5052821;28;1351;-68
2021/09/28 02:52:05;;;;;;;;;;;21.40;73.50;;;;;;5034194;28;1326;-68
2021/09/28 02:54:30;;;;;;;;;;;21.40;73.60;;;;;;5051586;28;1970;-68
2021/09/28 02:56:56;;;;;;;;;;;21.40;73.60;;;;;;5052656;28;1151;-68
2021/09/28 02:59:21;;;;;;;;;;;21.40;73.60;;;;;;5052622;28;1283;-68
2021/09/28 03:01:47;;;;;;;;;;;21.40;73.60;;;;;;5052086;28;1274;-68
2021/09/28 03:04:12;;;;;;;;;;;21.40;73.50;;;;;;5052602;28;1136;-68
2021/09/28 03:06:37;;;;;;;;;;;21.40;73.50;;;;;;5052500;28;1080;-68
2021/09/28 03:09:03;;;;;;;;;;;21.40;73.60;;;;;;5052587;28;1080;-68
2021/09/28 03:11:28;;;;;;;;;;;21.40;73.50;;;;;;5052139;28;1254;-68
2021/09/28 03:13:54;;;;;;;;;;;21.40;73.60;;;;;;5052533;28;1178;-68
2021/09/28 03:16:20;;;;;;;;;;;21.40;73.60;;;;;;5034431;28;1964;-69
2021/09/28 03:18:45;;;;;;;;;;;21.40;73.60;;;;;;5052463;28;1072;-68
2021/09/28 03:21:11;;;;;;;;;;;21.40;73.60;;;;;;5052048;28;1389;-68
2021/09/28 03:23:36;;;;;;;;;;;21.40;73.60;;;;;;5052335;28;1131;-68
2021/09/28 03:26:01;;;;;;;;;;;21.40;73.60;;;;;;5052409;28;1163;-68
2021/09/28 03:28:27;;;;;;;;;;;21.40;73.60;;;;;;5052365;28;1286;-68
2021/09/28 03:30:52;;;;;;;;;;;21.30;73.60;;;;;;5034607;28;1342;-69
2021/09/28 03:33:18;;;;;;;;;;;21.40;73.60;;;;;;5052406;28;1261;-69
2021/09/28 03:35:43;;;;;;;;;;;21.40;73.60;;;;;;5052137;28;1902;-69
2021/09/28 03:38:09;;;;;;;;;;;21.40;73.70;;;;;;5054821;28;1392;-69
2021/09/28 03:40:36;;;;;;;;;;;21.30;73.60;;;;;;5055671;28;1307;-68
2021/09/28 03:43:01;;;;;;;;;;;21.30;73.70;;;;;;5056024;28;1134;-69
2021/09/28 03:45:27;;;;;;;;;;;21.40;73.70;;;;;;5055786;28;1127;-69
2021/09/28 03:47:52;;;;;;;;;;;21.30;73.70;;;;;;5055841;28;1301;-69
2021/09/28 03:50:17;;;;;;;;;;;21.30;73.70;;;;;;5055631;28;1223;-68
2021/09/28 03:52:43;;;;;;;;;;;21.30;73.70;;;;;;5056197;28;1391;-69
2021/09/28 03:55:08;;;;;;;;;;;21.30;73.70;;;;;;5055744;28;1969;-69
2021/09/28 03:57:34;;;;;;;;;;;21.30;74.50;;;;;;5055768;28;1127;-69
2021/09/28 04:00:01;;;;;;;;;;;21.30;73.70;;;;;;5055267;28;1269;-69
2021/09/28 04:02:27;;;;;;;;;;;21.30;73.80;;;;;;5037817;28;1268;-69
2021/09/28 04:04:52;;;;;;;;;;;21.30;73.80;;;;;;5055577;28;1080;-69
2021/09/28 04:07:18;;;;;;;;;;;21.30;73.80;;;;;;5055635;28;1190;-69
2021/09/28 04:09:43;;;;;;;;;;;21.30;73.80;;;;;;5055355;28;1282;-69
2021/09/28 04:12:09;;;;;;;;;;;21.30;73.80;;;;;;5055310;28;1132;-69
2021/09/28 04:14:34;;;;;;;;;;;21.30;73.70;;;;;;5055291;28;1910;-69
2021/09/28 04:17:00;;;;;;;;;;;21.30;73.70;;;;;;5037543;28;1101;-69
2021/09/28 04:19:25;;;;;;;;;;;21.30;73.70;;;;;;5037551;28;1081;-69
2021/09/28 04:21:51;;;;;;;;;;;21.30;73.70;;;;;;5055014;28;1316;-69
2021/09/28 04:24:16;;;;;;;;;;;21.30;73.70;;;;;;5055248;28;1021;-68
2021/09/28 04:26:41;;;;;;;;;;;21.40;73.70;;;;;;5055271;28;1304;-68
2021/09/28 04:29:07;;;;;;;;;;;21.40;73.70;;;;;;5054999;28;1104;-69
2021/09/28 04:31:32;;;;;;;;;;;21.40;73.60;;;;;;5054587;28;1342;-68
2021/09/28 04:33:58;;;;;;;;;;;21.40;73.50;;;;;;5055032;28;1120;-69
2021/09/28 04:36:23;;;;;;;;;;;21.40;73.50;;;;;;5054984;28;1910;-69
2021/09/28 04:38:49;;;;;;;;;;;21.40;73.50;;;;;;5054960;28;1049;-69
2021/09/28 04:41:14;;;;;;;;;;;21.40;73.50;;;;;;5036798;28;1285;-69
2021/09/28 04:43:40;;;;;;;;;;;21.40;73.50;;;;;;5054861;28;1072;-69
2021/09/28 04:46:05;;;;;;;;;;;21.40;73.40;;;;;;5054587;28;1131;-69
2021/09/28 04:48:31;;;;;;;;;;;21.40;73.40;;;;;;5054608;28;1131;-69
2021/09/28 04:50:56;;;;;;;;;;;21.50;73.40;;;;;;5054073;28;1476;-69
2021/09/28 04:53:22;;;;;;;;;;;21.40;73.30;;;;;;5054628;28;1299;-69
2021/09/28 04:55:47;;;;;;;;;;;21.40;73.30;;;;;;5036599;28;1905;-69
2021/09/28 04:58:13;;;;;;;;;;;21.50;73.30;;;;;;5054597;28;1092;-68
2021/09/28 05:00:38;;;;;;;;;;;21.50;73.30;;;;;;5049641;28;2030;-68
2021/09/28 05:03:04;;;;;;;;;;;21.50;73.30;;;;;;5045774;28;2143;-68
2021/09/28 05:05:30;;;;;;;;;;;21.50;73.20;;;;;;5047375;28;1184;-68
2021/09/28 05:07:56;;;;;;;;;;;21.50;73.20;;;;;;5045356;28;1279;-68
2021/09/28 05:10:21;;;;;;;;;;;21.50;73.20;;;;;;5053973;28;1322;-68
2021/09/28 05:12:46;;;;;;;;;;;21.50;73.20;;;;;;5036603;28;1290;-68
2021/09/28 05:15:12;;;;;;;;;;;21.50;73.10;;;;;;5053828;28;1906;-68
2021/09/28 05:17:37;;;;;;;;;;;21.50;73.10;;;;;;5054308;28;1252;-68
2021/09/28 05:20:03;;;;;;;;;;;21.50;73.10;;;;;;5053856;28;1374;-68
2021/09/28 05:22:28;;;;;;;;;;;21.50;73.10;;;;;;5054394;28;1389;-68
2021/09/28 05:24:54;;;;;;;;;;;21.50;73.10;;;;;;5054071;28;1238;-68
2021/09/28 05:27:19;;;;;;;;;;;21.50;73.00;;;;;;5054259;28;1326;-68
2021/09/28 05:29:45;;;;;;;;;;;21.50;73.00;;;;;;5053408;28;1336;-68
2021/09/28 05:32:10;;;;;;;;;;;21.50;73.00;;;;;;5035958;28;1315;-68
2021/09/28 05:34:36;;;;;;;;;;;21.50;73.00;;;;;;5053770;28;1905;-68
2021/09/28 05:37:01;;;;;;;;;;;21.50;73.00;;;;;;5036019;28;1325;-68
2021/09/28 05:39:26;;;;;;;;;;;21.50;72.90;;;;;;5053815;28;1313;-68
2021/09/28 05:41:52;;;;;;;;;;;21.50;72.90;;;;;;5053477;28;1303;-68
2021/09/28 05:44:17;;;;;;;;;;;21.50;72.90;;;;;;5053327;28;1356;-68
2021/09/28 05:46:43;;;;;;;;;;;21.50;72.90;;;;;;5053700;28;1339;-68
2021/09/28 05:49:08;;;;;;;;;;;21.50;72.90;;;;;;5053494;28;1402;-67
2021/09/28 05:51:35;;;;;;;;;;;21.50;72.80;;;;;;5048153;28;1737;-69
2021/09/28 05:54:01;;;;;;;;;;;21.60;72.40;;;;;;5053099;28;1273;-69
2021/09/28 05:56:27;;;;;;;;;;;21.50;72.00;;;;;;5035888;28;1906;-69
2021/09/28 05:58:52;;;;;;;;;;;21.50;71.70;;;;;;5035247;28;1251;-69
2021/09/28 06:01:18;;;;;;;;;;;21.50;71.50;;;;;;5052324;28;1414;-69
2021/09/28 06:03:43;;;;;;;;;;;21.60;71.40;;;;;;5035578;28;1314;-69
2021/09/28 06:06:09;;;;;;;;;;;21.50;70.80;;;;;;5053112;28;1088;-69
2021/09/28 06:08:34;;;;;;;;;;;21.50;70.90;;;;;;5035447;28;1372;-69
2021/09/28 06:11:00;;;;;;;;;;;21.50;70.80;;;;;;5052886;28;1312;-69
2021/09/28 06:13:25;;;;;;;;;;;21.50;71.10;;;;;;5050125;28;1288;-67
2021/09/28 06:15:51;;;;;;;;;;;21.50;70.70;;;;;;5042301;28;1906;-70
2021/09/28 06:18:16;;;;;;;;;;;21.50;70.40;;;;;;5052886;28;1301;-68
2021/09/28 06:20:41;;;;;;;;;;;21.50;70.10;;;;;;5052615;28;1280;-69
2021/09/28 06:23:07;;;;;;;;;;;21.50;70.30;;;;;;5053122;28;1379;-67
2021/09/28 06:25:32;;;;;;;;;;;21.50;70.70;;;;;;5052931;28;1382;-68
2021/09/28 06:27:58;;;;;;;;;;;21.50;70.30;;;;;;5039148;28;1777;-68
2021/09/28 06:30:23;;;;;;;;;;;21.50;70.20;;;;;;5041037;28;1362;-68
2021/09/28 06:32:49;;;;;;;;;;;21.50;70.30;;;;;;5046428;28;2051;-68
2021/09/28 06:35:15;;;;;;;;;;;21.40;70.60;;;;;;5050959;28;1977;-68
2021/09/28 06:37:40;;;;;;;;;;;21.40;70.40;;;;;;5051614;28;1220;-68
2021/09/28 06:40:06;;;;;;;;;;;21.40;70.10;;;;;;5052013;28;1375;-68
2021/09/28 06:42:31;;;;;;;;;;;21.40;70.30;;;;;;5033803;28;2175;-68
2021/09/28 06:44:57;;;;;;;;;;;21.40;70.30;;;;;;5050686;28;1244;-68
2021/09/28 06:47:22;;;;;;;;;;;21.40;70.40;;;;;;5049239;28;1064;-68
2021/09/28 06:49:47;;;;;;;;;;;21.40;70.40;;;;;;5052392;28;1389;-69
2021/09/28 06:52:13;;;;;;;;;;;21.40;70.20;;;;;;5051941;28;1147;-69
2021/09/28 06:54:38;;;;;;;;;;;21.40;70.00;;;;;;5039730;28;1957;-68
2021/09/28 06:57:04;;;;;;;;;;;21.40;70.10;;;;;;5052478;28;1168;-68
2021/09/28 06:59:29;;;;;;;;;;;21.40;70.10;;;;;;5034807;28;1218;-68
2021/09/28 07:01:55;;;;;;;;;;;21.40;70.50;;;;;;5052365;28;1326;-69
2021/09/28 07:04:20;;;;;;;;;;;21.40;70.20;;;;;;5052680;28;997;-68
2021/09/28 07:06:46;;;;;;;;;;;21.40;70.60;;;;;;5052636;28;1252;-68
2021/09/28 07:09:11;;;;;;;;;;;21.40;70.20;;;;;;5053079;28;1061;-68
2021/09/28 07:11:36;;;;;;;;;;;21.30;70.10;;;;;;5052063;28;1320;-68
2021/09/28 07:14:02;;;;;;;;;;;21.30;69.80;;;;;;5056385;28;1362;-68
2021/09/28 07:16:27;;;;;;;;;;;21.30;70.50;;;;;;5056533;28;1902;-68
2021/09/28 07:18:53;;;;;;;;;;;21.30;70.10;;;;;;5056572;28;1247;-68
2021/09/28 07:21:18;;;;;;;;;;;21.30;70.00;;;;;;5056091;28;1385;-69
2021/09/28 07:23:44;;;;;;;;;;;21.30;69.60;;;;;;5056567;28;949;-68
2021/09/28 07:26:10;;;;;;;;;;;21.30;69.90;;;;;;5056122;28;1514;-68
2021/09/28 07:28:35;;;;;;;;;;;21.30;70.10;;;;;;5056384;28;1359;-68
2021/09/28 07:31:01;;;;;;;;;;;21.30;69.50;;;;;;5055754;28;1370;-69
2021/09/28 07:33:26;;;;;;;;;;;21.30;70.00;;;;;;5038453;28;1362;-68
2021/09/28 07:35:52;;;;;;;;;;;21.30;69.90;;;;;;5056086;28;1918;-68
2021/09/28 07:38:17;;;;;;;;;;;21.30;70.20;;;;;;5038521;28;1311;-68
2021/09/28 07:40:44;;;;;;;;;;;21.30;69.70;;;;;;5037923;28;1309;-68
2021/09/28 07:43:09;;;;;;;;;;;21.30;69.80;;;;;;5055964;28;1288;-68
2021/09/28 07:45:35;;;;;;;;;;;21.30;69.90;;;;;;5056013;28;1284;-68
2021/09/28 07:48:00;;;;;;;;;;;21.20;69.90;;;;;;5038235;28;1356;-68
2021/09/28 07:50:26;;;;;;;;;;;21.20;69.60;;;;;;5055578;28;1382;-69
2021/09/28 07:52:51;;;;;;;;;;;21.20;70.00;;;;;;5055877;28;1416;-69
2021/09/28 07:55:16;;;;;;;;;;;21.20;69.70;;;;;;5055681;28;1910;-68
2021/09/28 07:57:42;;;;;;;;;;;21.20;69.70;;;;;;5055614;28;1143;-68
2021/09/28 08:00:08;;;;;;;;;;;21.20;69.60;;;;;;5055460;28;1286;-68
2021/09/28 08:02:35;;;;;;;;;;;21.20;69.90;;;;;;5037973;28;1387;-68
2021/09/28 08:05:00;;;;;;;;;;;21.20;69.70;;;;;;5055610;28;1270;-68
2021/09/28 08:07:26;;;;;;;;;;;21.20;69.80;;;;;;5055518;28;1234;-69
2021/09/28 08:09:51;;;;;;;;;;;21.20;69.50;;;;;;5055164;28;1359;-68
2021/09/28 08:12:17;;;;;;;;;;;21.20;69.60;;;;;;5055415;28;1282;-68
2021/09/28 08:14:42;;;;;;;;;;;21.20;69.70;;;;;;5055424;28;1914;-68
2021/09/28 08:17:07;;;;;;;;;;;21.20;69.70;;;;;;5055755;28;1252;-68
2021/09/28 08:19:33;;;;;;;;;;;21.20;69.80;;;;;;5055247;28;1274;-68
2021/09/28 08:21:59;;;;;;;;;;;21.20;69.40;;;;;;5054839;28;1248;-69
2021/09/28 08:24:25;;;;;;;;;;;21.10;69.60;;;;;;5054350;28;1309;-68
2021/09/28 08:29:34;;;;;;;;;;;21.10;69.80;;;;;;5051785;28;1220;-68
2021/09/28 08:31:59;;;;;;;;;;;21.10;69.70;;;;;;5047723;28;1207;-68
2021/09/28 08:34:25;;;;;;;;;;;21.10;69.90;;;;;;5048323;28;1915;-68
2021/09/28 08:36:50;;;;;;;;;;;21.10;69.70;;;;;;5033478;28;1905;-69
2021/09/28 08:39:16;;;;;;;;;;;21.10;69.80;;;;;;5053280;28;1309;-68
2021/09/28 08:41:45;;;;;;;;;;;21.10;70.10;;;;;;5053918;28;1292;-68
2021/09/28 08:44:11;;;;;;;;;;;21.10;69.70;;;;;;5054902;28;1313;-68
2021/09/28 08:46:37;;;;;;;;;;;21.10;69.80;;;;;;5054193;28;1227;-68
2021/09/28 08:49:02;;;;;;;;;;;21.10;70.20;;;;;;5050410;28;1249;-68
2021/09/28 08:51:28;;;;;;;;;;;21.10;70.40;;;;;;5053008;28;1306;-68
2021/09/28 08:53:53;;;;;;;;;;;21.10;70.50;;;;;;5035087;28;1156;-69
2021/09/28 08:56:19;;;;;;;;;;;21.10;70.70;;;;;;5054481;28;1956;-68
2021/09/28 08:58:55;;;;;;;;;;;21.10;71.50;;;;;;5054680;28;1466;-68
2021/09/28 09:01:20;;;;;;;;;;;21.10;70.80;;;;;;5044886;28;1330;-68
2021/09/28 09:03:45;;;;;;;;;;;21.10;70.80;;;;;;5051754;28;1343;-67
2021/09/28 09:06:11;;;;;;;;;;;21.10;70.90;;;;;;5053807;28;1309;-69
2021/09/28 09:08:37;;;;;;;;;;;21.10;71.00;;;;;;5053022;28;1080;-68
2021/09/28 09:11:03;;;;;;;;;;;21.10;71.10;;;;;;5052534;28;1379;-69
2021/09/28 09:13:36;;;;;;;;;;;21.10;71.10;;;;;;5033136;28;1334;-69
2021/09/28 09:16:01;;;;;;;;;;;21.10;71.20;;;;;;5045371;28;1906;-69
2021/09/28 09:18:27;;;;;;;;;;;21.10;71.20;;;;;;5054511;28;1307;-69
2021/09/28 09:20:52;;;;;;;;;;;21.10;71.30;;;;;;5053659;28;1274;-69
2021/09/28 09:23:21;;;;;;;;;;;21.10;71.40;;;;;;5054105;28;1295;-69
2021/09/28 09:25:46;;;;;;;;;;;21.10;71.40;;;;;;5036601;28;1383;-69
2021/09/28 09:28:18;;;;;;;;;;;21.10;71.50;;;;;;5053997;28;1287;-69
2021/09/28 09:30:44;;;;;;;;;;;21.10;71.50;;;;;;5036424;28;1378;-67
2021/09/28 09:33:09;;;;;;;;;;;21.10;71.60;;;;;;5053995;28;1124;-68
2021/09/28 09:35:35;;;;;;;;;;;21.10;71.60;;;;;;5053489;28;1919;-68
2021/09/28 09:38:03;;;;;;;;;;;21.10;71.70;;;;;;5036324;28;1195;-68
2021/09/28 09:40:30;;;;;;;;;;;21.10;71.70;;;;;;5053558;28;1274;-67
2021/09/28 09:42:55;;;;;;;;;;;21.10;71.80;;;;;;5053869;28;1215;-67
2021/09/28 09:45:21;;;;;;;;;;;21.10;71.80;;;;;;5053996;28;1057;-68
2021/09/28 09:47:47;;;;;;;;;;;21.10;71.80;;;;;;5053646;28;1308;-68
2021/09/28 09:50:19;;;;;;;;;;;21.10;71.90;;;;;;5053114;28;1324;-67
2021/09/28 09:52:56;;;;;;;;;;;21.10;71.90;;;;;;5035829;28;1333;-68
2021/09/28 09:55:28;;;;;;;;;;;21.10;71.90;;;;;;5053313;28;1902;-68
2021/09/28 09:57:54;;;;;;;;;;;21.10;71.90;;;;;;5035158;28;2273;-68
2021/09/28 10:00:19;;;;;;;;;;;21.10;72.00;;;;;;5052895;28;1374;-68
2021/09/28 10:02:45;;;;;;;;;;;21.10;72.10;;;;;;5053560;28;1342;-68
2021/09/28 10:05:11;;;;;;;;;;;21.10;72.10;;;;;;5053302;28;1127;-68
2021/09/28 10:07:36;;;;;;;;;;;21.10;72.10;;;;;;5053361;28;1072;-68
2021/09/28 10:10:01;;;;;;;;;;;21.10;72.10;;;;;;5035123;28;1605;-68
2021/09/28 10:12:34;;;;;;;;;;;21.10;72.10;;;;;;5053364;28;1254;-68
2021/09/28 10:15:06;;;;;;;;;;;21.10;72.20;;;;;;5035075;28;1963;-68
2021/09/28 10:17:36;;;;;;;;;;;21.10;72.20;;;;;;5053246;28;1268;-68
2021/09/28 10:20:03;;;;;;;;;;;21.10;72.30;;;;;;5052677;28;1399;-68
2021/09/28 10:22:37;;;;;;;;;;;21.10;72.30;;;;;;5053121;28;1311;-68
2021/09/28 10:25:24;;;;;;;;;;;21.10;72.30;;;;;;5053052;28;1093;-68
2021/09/28 10:27:50;;;;;;;;;;;21.10;72.40;;;;;;5053051;28;1183;-68
2021/09/28 10:30:37;;;;;;;;;;;21.10;72.30;;;;;;5052411;28;1315;-68
2021/09/28 10:33:03;;;;;;;;;;;21.10;72.40;;;;;;5052924;28;1318;-68
2021/09/28 10:35:29;;;;;;;;;;;21.10;72.40;;;;;;5052868;28;1914;-68
2021/09/28 10:38:04;;;;;;;;;;;21.10;72.40;;;;;;5035073;28;1064;-68
2021/09/28 10:40:30;;;;;;;;;;;21.10;72.50;;;;;;5034791;28;1299;-68
2021/09/28 10:42:59;;;;;;;;;;;21.10;72.50;;;;;;5053040;28;1387;-68
2021/09/28 10:45:27;;;;;;;;;;;21.10;72.50;;;;;;5034995;28;1265;-68
2021/09/28 10:47:53;;;;;;;;;;;21.10;72.50;;;;;;5052364;28;1300;-68
2021/09/28 10:50:18;;;;;;;;;;;21.10;72.50;;;;;;5034723;28;1303;-68
2021/09/28 10:52:44;;;;;;;;;;;21.10;72.60;;;;;;5052642;28;1350;-67
2021/09/28 10:55:10;;;;;;;;;;;21.10;72.60;;;;;;5052733;28;1923;-68
2021/09/28 10:57:54;;;;;;;;;;;21.10;73.30;;;;;;5052738;28;1343;-68
2021/09/28 11:00:20;;;;;;;;;;;21.10;72.60;;;;;;5052411;28;1361;-68
2021/09/28 11:02:55;;;;;;;;;;;21.10;72.70;;;;;;5034869;28;1332;-67
2021/09/28 11:05:33;;;;;;;;;;;21.10;72.70;;;;;;5034622;28;1053;-68
2021/09/28 11:07:59;;;;;;;;;;;21.10;72.70;;;;;;5052737;28;1288;-68
2021/09/28 11:10:25;;;;;;;;;;;21.10;72.80;;;;;;5052051;28;1551;-67
2021/09/28 11:12:50;;;;;;;;;;;21.10;72.70;;;;;;5052658;28;1369;-68
2021/09/28 11:15:18;;;;;;;;;;;21.10;72.80;;;;;;5052227;28;1902;-68
2021/09/28 11:17:44;;;;;;;;;;;21.10;72.80;;;;;;5052468;28;1118;-68
2021/09/28 11:20:17;;;;;;;;;;;21.10;72.80;;;;;;5052341;28;1307;-67
2021/09/28 11:22:52;;;;;;;;;;;21.10;72.80;;;;;;5035021;28;1234;-68
2021/09/28 11:25:17;;;;;;;;;;;21.10;72.80;;;;;;5034670;28;1041;-67
2021/09/28 11:27:43;;;;;;;;;;;21.10;72.80;;;;;;5052714;28;1108;-68
2021/09/28 11:30:12;;;;;;;;;;;21.10;72.90;;;;;;5051676;28;1343;-68
2021/09/28 11:32:37;;;;;;;;;;;21.10;72.90;;;;;;5052484;28;1068;-67
2021/09/28 11:35:03;;;;;;;;;;;21.10;72.90;;;;;;5052306;28;1890;-68
2021/09/28 11:37:29;;;;;;;;;;;21.10;72.90;;;;;;5052298;28;1193;-68
2021/09/28 11:39:55;;;;;;;;;;;21.00;72.80;;;;;;5034256;28;1402;-68
2021/09/28 11:42:23;;;;;;;;;;;21.10;73.00;;;;;;5052275;28;1339;-67
2021/09/28 11:44:49;;;;;;;;;;;21.10;73.00;;;;;;5052214;28;1281;-68
2021/09/28 11:47:16;;;;;;;;;;;21.10;73.00;;;;;;5052208;28;1287;-68
2021/09/28 11:49:45;;;;;;;;;;;21.10;73.00;;;;;;5052267;28;1293;-68
2021/09/28 11:52:11;;;;;;;;;;;21.10;73.00;;;;;;5051975;28;1414;-68
2021/09/28 11:54:40;;;;;;;;;;;21.10;73.00;;;;;;5052708;28;1353;-68
2021/09/28 11:57:06;;;;;;;;;;;21.10;73.00;;;;;;5052237;28;1898;-67
2021/09/28 11:59:31;;;;;;;;;;;21.10;73.00;;;;;;5053466;28;1253;-67
2021/09/28 12:01:57;;;;;;;;;;;21.10;73.10;;;;;;5037427;28;1559;-67
2021/09/28 12:07:01;;;;;;;;;;;21.10;73.10;;;;;;5055580;28;1141;-68
2021/09/28 12:09:47;;;;;;;;;;;21.10;73.10;;;;;;5055791;28;1429;-68
2021/09/28 12:12:13;;;;;;;;;;;21.10;73.10;;;;;;5055530;28;1296;-68
2021/09/28 12:14:40;;;;;;;;;;;21.10;73.20;;;;;;5037804;28;1194;-68
2021/09/28 12:17:17;;;;;;;;;;;21.10;73.20;;;;;;5055495;28;1901;-67
2021/09/28 12:19:49;;;;;;;;;;;21.10;73.20;;;;;;5055305;28;1258;-68
2021/09/28 12:22:31;;;;;;;;;;;21.10;73.20;;;;;;5037322;28;1315;-68
2021/09/28 12:24:57;;;;;;;;;;;21.10;73.20;;;;;;5055255;28;1207;-68
2021/09/28 12:27:23;;;;;;;;;;;21.10;73.20;;;;;;5055355;28;1068;-68
2021/09/28 12:29:50;;;;;;;;;;;21.10;73.30;;;;;;5037174;28;1289;-68
2021/09/28 12:32:23;;;;;;;;;;;21.10;73.20;;;;;;5055100;28;1370;-67
2021/09/28 12:34:49;;;;;;;;;;;21.10;73.30;;;;;;5037213;28;1128;-68
2021/09/28 12:37:14;;;;;;;;;;;21.10;73.30;;;;;;5055177;28;1045;-67
2021/09/28 12:39:39;;;;;;;;;;;21.10;73.30;;;;;;5055149;28;1344;-68
2021/09/28 12:42:07;;;;;;;;;;;21.10;73.30;;;;;;5053978;28;1348;-68
2021/09/28 12:44:32;;;;;;;;;;;21.10;73.30;;;;;;5054452;28;1308;-68
2021/09/28 12:46:58;;;;;;;;;;;21.10;73.30;;;;;;5053177;28;1294;-68
2021/09/28 12:49:27;;;;;;;;;;;21.10;73.30;;;;;;5054368;28;1353;-67
2021/09/28 12:51:54;;;;;;;;;;;21.10;73.30;;;;;;5035762;28;1303;-68
2021/09/28 12:54:20;;;;;;;;;;;21.10;73.30;;;;;;5054328;28;1339;-68
2021/09/28 12:56:45;;;;;;;;;;;21.10;73.30;;;;;;5053834;28;1898;-68
2021/09/28 12:59:10;;;;;;;;;;;21.10;73.30;;;;;;5054360;28;1300;-68
2021/09/28 13:01:43;;;;;;;;;;;21.00;73.20;;;;;;5053243;28;1326;-68
2021/09/28 13:04:12;;;;;;;;;;;21.10;73.30;;;;;;5054497;28;1287;-69
2021/09/28 13:06:42;;;;;;;;;;;21.10;73.30;;;;;;5053685;28;1280;-68
2021/09/28 13:09:08;;;;;;;;;;;21.10;73.30;;;;;;5054054;28;1192;-68
2021/09/28 13:11:33;;;;;;;;;;;21.10;73.30;;;;;;5052910;28;1319;-68
2021/09/28 13:13:59;;;;;;;;;;;21.10;73.30;;;;;;5054051;28;1238;-67
2021/09/28 13:16:25;;;;;;;;;;;21.10;73.30;;;;;;5053696;28;1959;-68
2021/09/28 13:18:52;;;;;;;;;;;21.10;73.30;;;;;;5053679;28;1274;-68
2021/09/28 13:21:17;;;;;;;;;;;21.10;73.40;;;;;;5053357;28;1287;-68
2021/09/28 13:23:42;;;;;;;;;;;21.10;74.10;;;;;;5053391;28;1060;-68
2021/09/28 13:26:08;;;;;;;;;;;21.10;73.40;;;;;;5053558;28;1303;-68
2021/09/28 13:28:33;;;;;;;;;;;21.10;73.40;;;;;;5053864;28;1278;-68
2021/09/28 13:30:59;;;;;;;;;;;21.10;73.40;;;;;;5051932;28;1510;-68
2021/09/28 13:33:24;;;;;;;;;;;21.10;73.40;;;;;;5053540;28;1351;-68
2021/09/28 13:35:50;;;;;;;;;;;21.10;73.40;;;;;;5053249;28;1906;-67
2021/09/28 13:38:15;;;;;;;;;;;21.10;73.40;;;;;;5053736;28;1291;-68
2021/09/28 13:40:40;;;;;;;;;;;21.10;73.40;;;;;;5052721;28;1268;-67
2021/09/28 13:43:06;;;;;;;;;;;21.10;73.40;;;;;;5053344;28;1072;-68
2021/09/28 13:45:32;;;;;;;;;;;21.10;73.40;;;;;;5052557;28;1355;-68
2021/09/28 13:47:58;;;;;;;;;;;21.10;73.40;;;;;;5034319;28;1076;-68
2021/09/28 13:50:23;;;;;;;;;;;21.10;73.40;;;;;;5053183;28;1290;-68
2021/09/28 13:52:48;;;;;;;;;;;21.10;73.50;;;;;;5053774;28;1306;-68
2021/09/28 13:55:14;;;;;;;;;;;21.10;73.50;;;;;;5053650;28;1902;-68
2021/09/28 13:57:39;;;;;;;;;;;21.10;73.50;;;;;;5053591;28;1481;-68
2021/09/28 14:00:06;;;;;;;;;;;21.10;73.50;;;;;;5034808;28;1366;-67
2021/09/28 14:02:31;;;;;;;;;;;21.10;73.50;;;;;;5035817;28;962;-68
2021/09/28 14:04:57;;;;;;;;;;;21.10;74.30;;;;;;5053888;28;1182;-68
2021/09/28 14:07:22;;;;;;;;;;;21.10;73.50;;;;;;5053412;28;1255;-68
2021/09/28 14:09:48;;;;;;;;;;;21.10;73.50;;;;;;5053315;28;1205;-68
2021/09/28 14:12:13;;;;;;;;;;;21.10;73.60;;;;;;5053577;28;1172;-68
2021/09/28 14:14:38;;;;;;;;;;;21.10;73.60;;;;;;5053188;28;1170;-67
2021/09/28 14:17:04;;;;;;;;;;;21.10;73.60;;;;;;5053028;28;1894;-68
2021/09/28 14:19:30;;;;;;;;;;;21.10;73.60;;;;;;5053293;28;1155;-68
2021/09/28 14:21:55;;;;;;;;;;;21.10;73.60;;;;;;5052006;28;1354;-68
2021/09/28 14:24:20;;;;;;;;;;;21.10;73.60;;;;;;5053372;28;1191;-68
2021/09/28 14:26:46;;;;;;;;;;;21.10;73.60;;;;;;5053014;28;1390;-67
2021/09/28 14:29:11;;;;;;;;;;;21.10;73.60;;;;;;5053067;28;1276;-68
2021/09/28 14:31:43;;;;;;;;;;;21.10;73.60;;;;;;5015085;28;1284;-67